Watertown International Airport
KART : now visible

Airfield :











YOU CAN JOIN US ON...

 
LOGIN :

Register | Disclaimer

   EN    FR    IT 

 









Legend :    VFR   Marginal VFR   IFR   Intensive IFR   Very Intensive IFR
Visi :
Ceiling :
>= 8 km
>= 3000ft
5 to 8 km
1000 to 3000 ft
1500m to 5 km
500 to 1000 ft
800 to 1500m
200 to 500 ft
< 800m
< 200 ft
Symbols :   Thunderstorms  Fog  Heavy snow  Heavy precipitations  Wind > 20 kt






- Airport Elevation : 325 ft
- IATA code : ART


KART - Watertown International

CURRENT METAR :
  • 222356Z AUTO 29011KT 10SM FEW027 BKN036 OVC050 M02/M07 A2984 RMK AO2 SLP109 60000 T10221072 11006 21022 51024

EXPIRED METARs :
  • 222256Z AUTO 29011KT 10SM OVC085 M02/M07 A2981 RMK AO2 SLP100 T10221067
  • 222156Z AUTO 28011KT 10SM FEW017 FEW028 OVC080 M02/M06 A2979 RMK AO2 SNE26B28E39 SLP093 P0000 T10171056
  • 222126Z AUTO 27011KT 9SM SCT016 BKN030 OVC038 M02/M06 A2978 RMK AO2 SNE26 P0000 T10171056

TAF KART
Valid from the 23 at 00:00 until the 24 at 00:00 UTC


222321Z 2300/2324 29009KT P6SM OVC035
FM230300 30008KT P6SM OVC025
FM231200 33007KT P6SM BKN040
FM231700 30010KT P6SM SCT250
FM232100 29010G16KT P6SM FEW250
KZBW FIR / North America



MET'MAP, your aeronautical weather chart ! - Copyright ORBIFLY December 2007 - Disclaimer

ORBIFLY MET'MAP TEAM :

Programming & Development : Alexandra Zaïnal
Concept & original design : Baudouin d'Aumeries
Assistance for programming : Marc-Olivier Méhu
Technical & hardware support : Manuel Goepfert

Contact : metmap@orbifly.com




SOURCES & CREDITS :

   NOAA       Earth
Advisory